Time;durP1;ratioP1;P1;durP2;ratioP2;P2;SDS_P1;SDS_P2;PMS_P1;PMS_P2;Temp;Humidity;BMP_temperature;BMP_pressure;BME280_temperature;BME280_humidity;BME280_pressure;Samples;Min_cycle;Max_cycle;Signal;HPM_P1;HPM_P2
2022/09/12 00:01:21;;;;;;;19.83;17.40;;;12.50;99.90;;;;;;5049024;28;20063;-55
2022/09/12 00:03:50;;;;;;;22.98;18.75;;;13.00;99.90;;;;;;5049048;28;20056;-55
2022/09/12 00:06:18;;;;;;;22.02;19.02;;;12.70;99.90;;;;;;5014426;28;20044;-56
2022/09/12 00:08:44;;;;;;;23.30;18.48;;;12.70;99.90;;;;;;5048716;28;20060;-55
2022/09/12 00:11:11;;;;;;;23.58;20.90;;;12.30;99.90;;;;;;5048741;28;20051;-55
2022/09/12 00:13:39;;;;;;;28.80;19.73;;;12.40;99.90;;;;;;5048914;28;20099;-56
2022/09/12 00:16:05;;;;;;;26.25;19.90;;;12.20;99.90;;;;;;5049157;28;20049;-55
2022/09/12 00:18:32;;;;;;;22.23;19.65;;;12.10;99.90;;;;;;5048245;28;20131;-55
2022/09/12 00:21:03;;;;;;;22.23;19.38;;;13.00;99.90;;;;;;5030456;28;20044;-55
2022/09/12 00:23:30;;;;;;;23.58;18.63;;;12.10;99.90;;;;;;5030338;28;20045;-55
2022/09/12 00:25:55;;;;;;;25.67;19.27;;;12.20;99.90;;;;;;5048580;28;20045;-56
2022/09/12 00:28:21;;;;;;;22.88;19.83;;;12.10;99.90;;;;;;5048212;28;20441;-56
2022/09/12 00:30:48;;;;;;;21.40;18.90;;;12.00;99.90;;;;;;5048874;28;20048;-56
2022/09/12 00:33:15;;;;;;;24.35;20.45;;;12.00;99.90;;;;;;5048311;28;20122;-56
2022/09/12 00:35:49;;;;;;;20.33;17.70;;;12.10;99.90;;;;;;5048285;28;20045;-56
2022/09/12 00:38:15;;;;;;;22.95;19.52;;;11.90;99.90;;;;;;5047537;28;20045;-56
2022/09/12 00:40:42;;;;;;;22.10;18.75;;;12.40;99.90;;;;;;5030211;28;20656;-55
2022/09/12 00:43:32;;;;;;;23.00;20.38;;;12.40;99.90;;;;;;5048357;28;20045;-56
2022/09/12 00:46:01;;;;;;;25.17;20.83;;;12.40;99.90;;;;;;5048445;28;20489;-56
2022/09/12 00:48:37;;;;;;;26.60;19.63;;;12.10;99.90;;;;;;5047702;28;20040;-55
2022/09/12 00:51:02;;;;;;;22.33;18.70;;;12.10;99.90;;;;;;5048039;28;20045;-55
2022/09/12 00:53:28;;;;;;;24.52;18.75;;;12.00;99.90;;;;;;5047686;28;20059;-55
2022/09/12 00:55:56;;;;;;;22.27;17.98;;;12.40;99.90;;;;;;5048038;28;20043;-55
2022/09/12 00:58:29;;;;;;;26.42;18.85;;;12.40;99.90;;;;;;5047813;28;20377;-55
2022/09/12 01:00:57;;;;;;;22.65;20.27;;;12.40;99.90;;;;;;5047946;28;20755;-55
2022/09/12 01:03:23;;;;;;;27.92;21.42;;;12.50;99.90;;;;;;5047180;28;20181;-56
2022/09/12 01:06:02;;;;;;;22.42;20.10;;;12.10;99.90;;;;;;5029765;28;20083;-56
2022/09/12 01:08:28;;;;;;;27.75;23.38;;;12.10;99.90;;;;;;5047761;28;20067;-55
2022/09/12 01:10:55;;;;;;;24.63;22.02;;;12.40;99.90;;;;;;5048092;28;20049;-56
2022/09/12 01:13:22;;;;;;;32.75;23.95;;;12.50;99.90;;;;;;5047758;28;20040;-55
2022/09/12 01:15:47;;;;;;;29.05;22.73;;;12.40;99.90;;;;;;5047555;28;20040;-56
2022/09/12 01:18:29;;;;;;;29.90;22.73;;;12.40;99.90;;;;;;5047135;28;20045;-56
2022/09/12 01:21:00;;;;;;;27.45;21.92;;;12.60;99.90;;;;;;5029716;28;20072;-55
2022/09/12 01:23:31;;;;;;;23.52;21.02;;;12.10;99.90;;;;;;5047416;28;20046;-55
2022/09/12 01:26:06;;;;;;;27.00;20.88;;;12.50;99.90;;;;;;5047650;28;20036;-56
2022/09/12 01:29:06;;;;;;;30.33;23.35;;;12.60;99.90;;;;;;5029228;28;20056;-56
2022/09/12 01:31:56;;;;;;;33.53;23.05;;;12.10;99.90;;;;;;5047106;28;20151;-56
2022/09/12 01:34:49;;;;;;;29.20;22.48;;;12.10;99.90;;;;;;5047576;28;20414;-56
2022/09/12 01:37:38;;;;;;;32.20;25.05;;;11.90;99.90;;;;;;5047099;28;20049;-56
2022/09/12 01:40:30;;;;;;;33.97;27.10;;;11.90;99.90;;;;;;5047379;28;20052;-55
2022/09/12 01:43:20;;;;;;;41.20;27.38;;;11.90;99.90;;;;;;5047083;28;20037;-54
2022/09/12 01:46:21;;;;;;;34.75;27.65;;;11.90;99.90;;;;;;5047270;28;20199;-58
2022/09/12 01:49:17;;;;;;;36.38;28.58;;;11.90;99.90;;;;;;5047430;28;20048;-57
2022/09/12 01:52:18;;;;;;;42.53;30.90;;;11.80;99.90;;;;;;5029358;28;20056;-56
2022/09/12 01:54:53;;;;;;;56.55;34.13;;;11.90;99.90;;;;;;5029342;28;20178;-56
2022/09/12 01:57:43;;;;;;;52.40;33.08;;;11.90;99.90;;;;;;5047045;28;20605;-56
2022/09/12 02:00:11;;;;;;;55.83;33.50;;;11.80;99.90;;;;;;5047558;28;20037;-56
2022/09/12 02:03:01;;;;;;;54.28;34.28;;;11.90;99.90;;;;;;5046912;28;20534;-56
2022/09/12 02:05:29;;;;;;;57.88;36.53;;;12.00;99.90;;;;;;5047109;28;20045;-56
2022/09/12 02:08:19;;;;;;;53.03;34.85;;;11.90;99.90;;;;;;5028580;28;20632;-56
2022/09/12 02:11:08;;;;;;;61.85;37.75;;;12.00;99.90;;;;;;5046798;28;20051;-57
2022/09/12 02:13:43;;;;;;;64.85;38.55;;;12.00;99.90;;;;;;5046126;28;20483;-56
2022/09/12 02:16:18;;;;;;;66.43;38.25;;;12.00;99.90;;;;;;5046777;28;20075;-56
2022/09/12 02:18:48;;;;;;;76.07;39.75;;;12.00;99.90;;;;;;5046473;28;20041;-57
2022/09/12 02:21:18;;;;;;;99.18;44.30;;;12.00;99.90;;;;;;5047262;28;20037;-56
2022/09/12 02:23:49;;;;;;;77.28;40.95;;;12.00;99.90;;;;;;5046329;28;20394;-56
2022/09/12 02:26:22;;;;;;;67.03;39.60;;;12.60;99.90;;;;;;5046216;28;20041;-56
2022/09/12 02:28:48;;;;;;;73.38;40.97;;;12.00;99.90;;;;;;5045675;28;20510;-57
2022/09/12 02:31:24;;;;;;;77.78;40.17;;;12.00;99.90;;;;;;5028022;28;20045;-57
2022/09/12 02:34:18;;;;;;;105.72;43.13;;;11.90;99.90;;;;;;5045934;28;20041;-56
2022/09/12 02:36:43;;;;;;;58.72;34.40;;;11.90;99.90;;;;;;5027788;28;20080;-56
2022/09/12 02:39:09;;;;;;;56.28;34.22;;;11.80;99.90;;;;;;5045895;28;20479;-58
2022/09/12 02:41:35;;;;;;;62.70;34.65;;;11.80;99.90;;;;;;5045602;28;20041;-56
2022/09/12 02:44:02;;;;;;;63.83;34.08;;;11.80;99.90;;;;;;5045829;28;20044;-56
2022/09/12 02:46:35;;;;;;;59.25;35.92;;;11.70;99.90;;;;;;5046111;28;20045;-56
2022/09/12 02:49:01;;;;;;;63.58;34.97;;;11.70;99.90;;;;;;5027778;28;20060;-56
2022/09/12 02:51:27;;;;;;;97.85;38.13;;;12.10;99.90;;;;;;5045866;28;20079;-55
2022/09/12 02:53:53;;;;;;;68.35;35.20;;;11.60;99.90;;;;;;5045294;28;20051;-56
2022/09/12 02:56:27;;;;;;;86.25;38.92;;;11.50;99.90;;;;;;5045346;28;20049;-56
2022/09/12 02:58:57;;;;;;;72.70;38.75;;;11.60;99.90;;;;;;5045473;28;20049;-55
2022/09/12 03:01:32;;;;;;;87.68;40.03;;;11.60;99.90;;;;;;5045594;28;20380;-56
2022/09/12 03:04:16;;;;;;;102.22;44.75;;;11.60;99.90;;;;;;5045486;28;20135;-55
2022/09/12 03:07:14;;;;;;;71.68;38.35;;;11.70;99.90;;;;;;5045329;28;20163;-56
2022/09/12 03:09:51;;;;;;;59.08;31.90;;;11.70;99.90;;;;;;5045619;28;20052;-56
2022/09/12 03:12:52;;;;;;;65.00;35.47;;;11.60;99.90;;;;;;5045136;28;20045;-55
2022/09/12 03:15:52;;;;;;;73.28;36.45;;;11.60;99.90;;;;;;5045851;28;20045;-56
2022/09/12 03:18:35;;;;;;;64.50;34.22;;;11.60;99.90;;;;;;5041060;28;20060;-55
2022/09/12 03:21:24;;;;;;;115.45;41.13;;;11.50;99.90;;;;;;5045320;28;20048;-57
2022/09/12 03:24:03;;;;;;;77.63;38.85;;;11.40;99.90;;;;;;5045058;28;20490;-57
2022/09/12 03:26:55;;;;;;;73.10;38.70;;;12.00;99.90;;;;;;5030499;28;20585;-52
2022/09/12 03:29:23;;;;;;;87.70;40.97;;;11.50;99.90;;;;;;5049626;28;20068;-60
2022/09/12 03:31:51;;;;;;;104.72;40.88;;;11.30;99.90;;;;;;5049136;28;20060;-55
2022/09/12 03:34:19;;;;;;;90.15;41.75;;;11.40;99.90;;;;;;5049750;28;20099;-55
2022/09/12 03:36:45;;;;;;;106.93;43.47;;;11.40;99.90;;;;;;5049548;28;20033;-56
2022/09/12 03:39:11;;;;;;;76.53;38.42;;;11.40;99.90;;;;;;5049205;28;20041;-56
2022/09/12 03:41:37;;;;;;;128.40;44.97;;;11.40;99.90;;;;;;5014717;28;20151;-55
2022/09/12 03:44:02;;;;;;;88.45;42.55;;;11.20;99.90;;;;;;5031113;28;20049;-55
2022/09/12 03:46:28;;;;;;;85.13;41.30;;;11.30;99.90;;;;;;5049496;28;20073;-55
2022/09/12 03:48:54;;;;;;;117.65;45.67;;;11.50;99.90;;;;;;5049245;28;20041;-55
2022/09/12 03:51:19;;;;;;;132.57;47.13;;;11.40;99.90;;;;;;5049125;28;20439;-55
2022/09/12 03:53:45;;;;;;;102.68;42.92;;;11.40;99.90;;;;;;5048760;28;20048;-56
2022/09/12 03:56:12;;;;;;;93.80;42.75;;;11.40;99.90;;;;;;5048891;28;20084;-56
2022/09/12 03:58:38;;;;;;;95.32;42.55;;;11.40;99.90;;;;;;5049159;28;20372;-56
2022/09/12 04:01:13;;;;;;;90.03;40.85;;;11.50;99.90;;;;;;5048481;28;20443;-55
2022/09/12 04:03:40;;;;;;;84.82;43.25;;;12.30;99.90;;;;;;5030751;28;20051;-56
2022/09/12 04:06:07;;;;;;;101.43;44.83;;;11.50;99.90;;;;;;5048916;28;20174;-56
2022/09/12 04:08:33;;;;;;;79.00;40.75;;;11.60;99.90;;;;;;5049066;28;20053;-55
2022/09/12 04:11:09;;;;;;;155.45;49.65;;;11.50;99.90;;;;;;5048453;28;20044;-56
2022/09/12 04:13:36;;;;;;;119.15;46.38;;;11.50;99.90;;;;;;5014166;28;20052;-55
2022/09/12 04:16:03;;;;;;;111.68;46.42;;;11.60;99.90;;;;;;5048345;28;20053;-55
2022/09/12 04:18:29;;;;;;;89.97;44.67;;;11.60;99.90;;;;;;5030280;28;20053;-55
2022/09/12 04:20:55;;;;;;;125.60;48.78;;;11.50;99.90;;;;;;5047950;28;20552;-56
2022/09/12 04:23:21;;;;;;;87.40;45.53;;;11.50;99.90;;;;;;5048077;28;20049;-55
2022/09/12 04:25:57;;;;;;;90.38;45.13;;;11.60;99.90;;;;;;5047931;28;20048;-55
2022/09/12 04:28:23;;;;;;;116.50;47.65;;;11.60;99.90;;;;;;5048498;28;20068;-56
2022/09/12 04:30:49;;;;;;;110.40;46.85;;;11.30;99.90;;;;;;5048268;28;20040;-56
2022/09/12 04:33:15;;;;;;;100.32;47.40;;;11.70;99.90;;;;;;5048342;28;20116;-56
2022/09/12 04:35:41;;;;;;;120.00;50.83;;;11.60;99.90;;;;;;5048364;28;20060;-56
2022/09/12 04:38:08;;;;;;;134.25;50.10;;;11.50;99.90;;;;;;5047090;28;20102;-56
2022/09/12 04:40:34;;;;;;;145.60;53.00;;;12.40;99.90;;;;;;5030145;28;20044;-55
2022/09/12 04:43:00;;;;;;;155.35;52.53;;;11.70;99.90;;;;;;5048111;28;20049;-56
2022/09/12 04:45:25;;;;;;;113.72;48.55;;;11.60;99.90;;;;;;5048074;28;20501;-56
2022/09/12 04:47:51;;;;;;;106.13;47.92;;;11.60;99.90;;;;;;5030326;28;20548;-56
2022/09/12 04:50:18;;;;;;;112.82;48.25;;;11.60;99.90;;;;;;5047908;28;20372;-55
2022/09/12 04:52:52;;;;;;;149.65;50.88;;;11.60;99.90;;;;;;5048172;28;20312;-56
2022/09/12 04:55:18;;;;;;;120.18;41.38;;;11.30;99.90;;;;;;5048133;28;20044;-56
2022/09/12 04:57:44;;;;;;;99.20;40.60;;;11.50;99.90;;;;;;5030040;28;20084;-56
2022/09/12 05:00:12;;;;;;;97.47;40.50;;;11.50;99.90;;;;;;5047362;28;20160;-56
2022/09/12 05:02:38;;;;;;;134.55;45.00;;;11.40;99.90;;;;;;5029808;28;20103;-55
2022/09/12 05:05:04;;;;;;;122.88;43.30;;;11.30;99.90;;;;;;5029675;28;20064;-56
2022/09/12 05:07:29;;;;;;;118.97;45.25;;;11.30;99.90;;;;;;5047744;28;20057;-56
2022/09/12 05:09:55;;;;;;;127.55;45.15;;;11.10;99.90;;;;;;5047582;28;20110;-56
2022/09/12 05:12:21;;;;;;;107.65;43.70;;;11.30;99.90;;;;;;5029983;28;20052;-56
2022/09/12 05:14:46;;;;;;;119.45;45.83;;;11.30;99.90;;;;;;5047791;28;20052;-57
2022/09/12 05:17:12;;;;;;;138.77;48.35;;;11.30;99.90;;;;;;5047614;28;20491;-56
2022/09/12 05:19:38;;;;;;;124.00;45.13;;;11.40;99.90;;;;;;5047895;28;20102;-56
2022/09/12 05:22:05;;;;;;;105.75;43.05;;;11.20;99.90;;;;;;5029649;28;20091;-56
2022/09/12 05:24:31;;;;;;;105.82;45.80;;;11.50;99.90;;;;;;5029646;28;20048;-56
2022/09/12 05:26:57;;;;;;;115.88;48.22;;;11.70;99.90;;;;;;5047358;28;20053;-56
2022/09/12 05:29:24;;;;;;;113.93;45.47;;;12.10;99.90;;;;;;5029353;28;20139;-56
2022/09/12 05:31:52;;;;;;;101.32;45.00;;;11.90;99.90;;;;;;5047183;28;20044;-56
2022/09/12 05:34:19;;;;;;;100.70;45.50;;;11.90;99.90;;;;;;5047286;28;20075;-56
2022/09/12 05:36:44;;;;;;;102.28;47.58;;;12.30;99.90;;;;;;5029057;28;20045;-56
2022/09/12 05:39:10;;;;;;;111.40;47.85;;;13.10;99.90;;;;;;5046599;28;20052;-56
2022/09/12 05:41:37;;;;;;;111.13;48.08;;;12.60;99.90;;;;;;5046733;28;20059;-55
2022/09/12 05:44:05;;;;;;;101.45;48.10;;;12.50;99.90;;;;;;5037272;28;20091;-56
2022/09/12 05:46:36;;;;;;;96.60;47.53;;;12.60;99.90;;;;;;5028898;28;20075;-56
2022/09/12 05:49:04;;;;;;;118.65;50.13;;;12.80;99.90;;;;;;5043458;28;20044;-56
2022/09/12 05:51:33;;;;;;;101.20;47.95;;;13.00;99.90;;;;;;5046672;28;20080;-56
2022/09/12 05:54:00;;;;;;;109.50;49.33;;;13.40;99.90;;;;;;5025339;28;20040;-56
2022/09/12 05:56:28;;;;;;;91.75;46.55;;;13.50;99.90;;;;;;5046227;28;20036;-55
2022/09/12 05:59:01;;;;;;;95.05;46.70;;;13.60;99.90;;;;;;5046316;28;20044;-56
2022/09/12 06:01:29;;;;;;;75.80;43.47;;;13.80;99.90;;;;;;5044476;28;20415;-56
2022/09/12 06:03:59;;;;;;;75.63;41.95;;;13.70;99.90;;;;;;5046747;28;20044;-56
2022/09/12 06:06:26;;;;;;;71.20;43.40;;;13.90;99.90;;;;;;5041801;28;20091;-56
2022/09/12 06:08:56;;;;;;;71.78;41.33;;;14.30;99.90;;;;;;5046149;28;20045;-56
2022/09/12 06:11:25;;;;;;;57.20;37.20;;;13.80;99.90;;;;;;5045988;28;20103;-57
2022/09/12 06:13:52;;;;;;;61.78;38.33;;;13.80;99.90;;;;;;5046864;28;20768;-56
2022/09/12 06:16:20;;;;;;;61.97;39.40;;;13.80;99.90;;;;;;5045987;28;20045;-56
2022/09/12 06:18:52;;;;;;;54.63;36.50;;;13.80;99.90;;;;;;5028147;28;20447;-57
2022/09/12 06:21:18;;;;;;;57.58;37.35;;;13.70;99.90;;;;;;5045473;28;20051;-56
2022/09/12 06:23:45;;;;;;;59.83;38.25;;;13.80;99.90;;;;;;5025223;28;20037;-56
2022/09/12 06:26:12;;;;;;;57.15;37.42;;;13.70;99.90;;;;;;5025045;28;20126;-55
2022/09/12 06:28:41;;;;;;;62.35;36.80;;;13.80;99.90;;;;;;5046025;28;20045;-58
2022/09/12 06:31:09;;;;;;;51.70;35.05;;;13.80;99.90;;;;;;5008323;28;20049;-56
2022/09/12 06:33:38;;;;;;;58.13;37.10;;;13.80;99.90;;;;;;5045369;28;20075;-56
2022/09/12 06:36:06;;;;;;;60.20;36.53;;;14.10;99.90;;;;;;5043985;28;20491;-56
2022/09/12 06:38:32;;;;;;;57.08;36.08;;;13.90;99.90;;;;;;5026059;28;20041;-56
2022/09/12 06:40:59;;;;;;;52.90;36.00;;;14.00;99.90;;;;;;5045156;28;20377;-57
2022/09/12 06:43:27;;;;;;;55.00;35.72;;;14.30;99.90;;;;;;5045273;28;20048;-56
2022/09/12 06:45:52;;;;;;;58.65;38.55;;;14.10;99.90;;;;;;5042955;28;20033;-56
2022/09/12 06:48:18;;;;;;;54.22;35.53;;;14.20;99.90;;;;;;5044348;28;20049;-56
2022/09/12 06:50:57;;;;;;;52.30;36.72;;;14.30;99.90;;;;;;5026025;28;20052;-56
2022/09/12 06:53:24;;;;;;;58.22;36.80;;;14.40;99.90;;;;;;5044599;28;20094;-56
2022/09/12 06:55:57;;;;;;;58.92;36.95;;;14.40;99.90;;;;;;5044887;28;20045;-56
2022/09/12 06:58:24;;;;;;;60.13;38.45;;;14.40;99.90;;;;;;5044494;28;20043;-57
2022/09/12 07:00:50;;;;;;;56.47;36.10;;;14.50;99.90;;;;;;5044219;28;20043;-56
2022/09/12 07:03:17;;;;;;;55.42;35.30;;;14.60;99.90;;;;;;5043137;28;20128;-56
2022/09/12 07:05:43;;;;;;;54.20;36.63;;;14.70;99.90;;;;;;5045063;28;20037;-56
2022/09/12 07:08:09;;;;;;;53.17;35.65;;;14.80;99.90;;;;;;5044933;28;20061;-56
2022/09/12 07:10:34;;;;;;;49.85;35.17;;;14.80;99.90;;;;;;5044701;28;20414;-56
2022/09/12 07:13:00;;;;;;;56.88;36.13;;;14.90;99.90;;;;;;5044960;28;20076;-56
2022/09/12 07:15:26;;;;;;;51.80;35.40;;;14.90;99.90;;;;;;5026711;28;20076;-56
2022/09/12 07:17:51;;;;;;;51.78;35.92;;;15.00;99.90;;;;;;5042077;28;20098;-56
2022/09/12 07:20:17;;;;;;;52.35;37.08;;;15.10;99.90;;;;;;5026211;28;20049;-55
2022/09/12 07:22:43;;;;;;;55.78;37.88;;;15.10;99.90;;;;;;5044461;28;20047;-56
2022/09/12 07:25:08;;;;;;;53.70;36.92;;;15.20;99.90;;;;;;5026442;28;20080;-57
2022/09/12 07:27:36;;;;;;;53.60;34.72;;;15.30;99.90;;;;;;5044873;28;20159;-57
2022/09/12 07:30:04;;;;;;;58.28;37.05;;;15.70;99.90;;;;;;5044328;28;20056;-57
2022/09/12 07:32:30;;;;;;;50.70;35.60;;;15.30;99.90;;;;;;5044478;28;20099;-57
2022/09/12 07:34:56;;;;;;;50.90;34.42;;;15.40;99.90;;;;;;5044618;28;20045;-56
2022/09/12 07:37:21;;;;;;;52.95;37.25;;;15.40;99.90;;;;;;5043422;28;20051;-56
2022/09/12 07:39:47;;;;;;;53.45;35.20;;;15.40;99.90;;;;;;5043991;28;20040;-56
2022/09/12 07:42:13;;;;;;;48.35;32.10;;;15.50;99.90;;;;;;5044121;28;20094;-56
2022/09/12 07:44:39;;;;;;;46.28;31.70;;;15.60;99.90;;;;;;5044290;28;20151;-56
2022/09/12 07:47:05;;;;;;;46.75;34.00;;;15.60;99.90;;;;;;5043991;28;20163;-55
2022/09/12 07:49:30;;;;;;;42.83;31.38;;;15.70;99.90;;;;;;5044337;28;20483;-55
2022/09/12 07:51:56;;;;;;;41.30;30.17;;;15.90;99.90;;;;;;5043790;28;20037;-56
2022/09/12 07:54:22;;;;;;;43.47;30.10;;;16.00;99.90;;;;;;5044330;28;20450;-56
2022/09/12 07:56:47;;;;;;;38.15;29.38;;;16.20;99.90;;;;;;5044053;28;20495;-56
2022/09/12 07:59:13;;;;;;;37.35;29.00;;;16.30;99.90;;;;;;5044043;28;20037;-57
2022/09/12 08:01:40;;;;;;;39.05;29.65;;;16.50;99.90;;;;;;5026497;28;20055;-56
2022/09/12 08:04:06;;;;;;;36.53;28.80;;;16.70;99.90;;;;;;5045188;28;20041;-56
2022/09/12 08:06:34;;;;;;;38.85;29.80;;;16.80;99.90;;;;;;5044368;28;20048;-57
2022/09/12 08:09:00;;;;;;;40.65;29.88;;;18.10;99.90;;;;;;5041955;28;20049;-56
2022/09/12 08:11:28;;;;;;;37.22;30.00;;;17.20;99.90;;;;;;5044964;28;20505;-55
2022/09/12 08:13:56;;;;;;;37.80;29.70;;;17.40;99.90;;;;;;5049005;28;20487;-55
2022/09/12 08:16:25;;;;;;;35.55;28.40;;;17.50;99.90;;;;;;5048414;28;20140;-55
2022/09/12 08:18:51;;;;;;;38.15;27.67;;;17.50;99.90;;;;;;5048642;28;20062;-56
2022/09/12 08:21:26;;;;;;;31.33;24.80;;;17.50;99.90;;;;;;5043795;28;20047;-55
2022/09/12 08:23:53;;;;;;;30.27;24.17;;;17.40;99.90;;;;;;5047460;28;20045;-56
2022/09/12 08:26:19;;;;;;;32.28;24.30;;;17.40;99.90;;;;;;5029531;28;20554;-56
2022/09/12 08:28:46;;;;;;;30.48;23.70;;;17.30;99.90;;;;;;5048216;28;20037;-57
2022/09/12 08:31:14;;;;;;;30.48;24.77;;;17.30;99.90;;;;;;5026509;28;20041;-57
2022/09/12 08:33:40;;;;;;;28.15;23.63;;;17.40;99.90;;;;;;5046118;28;20041;-57
2022/09/12 08:36:08;;;;;;;31.02;24.75;;;17.50;99.90;;;;;;5047932;28;20052;-56
2022/09/12 08:38:35;;;;;;;33.67;25.15;;;17.60;99.90;;;;;;5028740;28;20048;-57
2022/09/12 08:41:22;;;;;;;30.13;23.85;;;17.80;99.90;;;;;;5047227;28;20044;-56
2022/09/12 08:44:02;;;;;;;28.17;22.02;;;17.90;99.90;;;;;;5047738;28;20337;-56
2022/09/12 08:46:52;;;;;;;27.60;20.80;;;18.10;99.90;;;;;;5047260;28;20495;-55
2022/09/12 08:49:32;;;;;;;23.77;20.65;;;18.20;99.90;;;;;;5045283;28;20058;-55
2022/09/12 08:52:20;;;;;;;24.33;19.85;;;18.30;99.90;;;;;;5047062;28;20095;-55
2022/09/12 08:54:46;;;;;;;21.88;17.25;;;18.40;99.90;;;;;;5003284;28;20080;-56
2022/09/12 08:57:14;;;;;;;21.42;17.65;;;18.40;99.90;;;;;;5027840;28;20206;-56
2022/09/12 08:59:45;;;;;;;19.40;16.10;;;18.50;99.90;;;;;;5046040;28;20486;-56
2022/09/12 09:02:58;;;;;;;20.95;17.30;;;18.60;99.90;;;;;;5046438;28;20033;-56
2022/09/12 09:05:39;;;;;;;18.48;15.43;;;18.70;99.90;;;;;;5027620;28;20044;-56
2022/09/12 09:08:14;;;;;;;20.83;17.90;;;18.80;99.90;;;;;;5009311;28;20053;-56
2022/09/12 09:10:52;;;;;;;19.98;16.30;;;18.70;99.90;;;;;;5027545;28;20037;-56
2022/09/12 09:16:37;;;;;;;20.25;15.15;;;18.80;99.90;;;;;;5019803;28;20593;-55
2022/09/12 09:19:17;;;;;;;18.75;15.27;;;18.90;99.90;;;;;;5027349;28;20060;-55
2022/09/12 09:21:53;;;;;;;16.50;14.43;;;18.90;99.90;;;;;;5009418;28;20050;-56
2022/09/12 09:24:23;;;;;;;16.98;13.68;;;19.00;99.90;;;;;;5037459;28;20390;-55
2022/09/12 09:26:58;;;;;;;16.05;13.30;;;19.10;99.90;;;;;;5045042;28;20035;-55
2022/09/12 09:29:31;;;;;;;16.15;14.07;;;19.20;99.90;;;;;;5046952;28;20044;-56
2022/09/12 09:32:00;;;;;;;16.90;12.73;;;19.30;99.90;;;;;;5028392;28;20126;-55
2022/09/12 09:34:30;;;;;;;14.25;12.75;;;19.60;99.90;;;;;;5047360;28;20045;-57
2022/09/12 09:37:08;;;;;;;14.52;13.00;;;20.20;99.90;;;;;;5044357;28;20048;-57
2022/09/12 09:39:52;;;;;;;17.92;13.05;;;20.80;99.90;;;;;;5043946;28;20049;-56
2022/09/12 09:42:30;;;;;;;15.40;13.20;;;20.90;99.90;;;;;;5024193;28;20068;-55
2022/09/12 09:44:59;;;;;;;16.13;12.93;;;;;;;;;;5044005;28;20096;-55
2022/09/12 09:47:25;;;;;;;17.25;13.38;;;21.40;99.90;;;;;;5043929;28;20045;-55
2022/09/12 09:49:51;;;;;;;16.20;13.00;;;21.70;99.90;;;;;;5044051;28;20052;-55
2022/09/12 09:52:25;;;;;;;16.63;13.82;;;21.90;99.90;;;;;;5044378;28;20045;-56
2022/09/12 09:54:58;;;;;;;18.48;14.48;;;22.20;99.90;;;;;;5044102;28;20040;-55
2022/09/12 09:57:33;;;;;;;15.77;12.57;;;22.60;99.90;;;;;;5042108;28;20033;-56
2022/09/12 10:00:32;;;;;;;20.80;16.52;;;23.00;99.90;;;;;;5025921;28;20139;-55
2022/09/12 10:03:13;;;;;;;19.25;15.40;;;23.30;99.90;;;;;;5010432;28;20049;-56
2022/09/12 10:05:54;;;;;;;20.10;16.52;;;23.60;99.90;;;;;;5026104;28;20048;-56
2022/09/12 10:08:23;;;;;;;19.90;17.20;;;23.90;99.90;;;;;;5043509;28;20064;-56
2022/09/12 10:11:29;;;;;;;21.98;17.70;;;24.10;99.90;;;;;;5044269;28;20522;-55
2022/09/12 10:13:56;;;;;;;23.52;17.10;;;24.60;99.90;;;;;;5009493;28;20671;-56
2022/09/12 10:16:26;;;;;;;23.45;16.48;;;25.10;99.70;;;;;;5044129;28;20597;-56
2022/09/12 10:19:02;;;;;;;23.15;17.23;;;25.50;99.10;;;;;;5043892;28;20053;-56
2022/09/12 10:21:35;;;;;;;24.45;19.30;;;25.70;98.60;;;;;;5044284;28;20124;-56
2022/09/12 10:24:17;;;;;;;26.48;20.15;;;25.70;97.00;;;;;;5044336;28;20148;-55
2022/09/12 10:26:50;;;;;;;25.30;19.35;;;25.40;96.30;;;;;;5043350;28;20083;-55
2022/09/12 10:29:30;;;;;;;24.75;19.67;;;25.10;96.10;;;;;;5043997;28;20147;-55
2022/09/12 10:32:07;;;;;;;28.60;20.07;;;24.70;95.60;;;;;;5025618;28;20049;-53
2022/09/12 10:34:44;;;;;;;27.63;20.13;;;24.40;96.10;;;;;;5033884;28;20443;-55
2022/09/12 10:37:22;;;;;;;25.45;19.40;;;24.20;95.60;;;;;;5043406;28;20040;-56
2022/09/12 10:39:53;;;;;;;23.67;17.85;;;24.10;96.60;;;;;;5042583;28;20460;-56
2022/09/12 10:42:44;;;;;;;26.90;19.33;;;24.00;96.90;;;;;;5043271;28;20580;-56
2022/09/12 10:45:20;;;;;;;24.95;17.63;;;23.90;96.40;;;;;;5043948;28;20055;-56
2022/09/12 10:47:47;;;;;;;22.65;15.88;;;23.80;96.50;;;;;;5043792;28;20049;-56
2022/09/12 10:50:28;;;;;;;25.77;16.67;;;23.60;97.20;;;;;;5025830;28;20102;-57
2022/09/12 10:53:20;;;;;;;22.10;16.90;;;23.50;97.00;;;;;;5043949;28;20348;-58
2022/09/12 10:56:01;;;;;;;;;;;23.40;96.80;;;;;;5031180;28;20482;-47
2022/09/12 10:58:38;;;;;;;18.45;13.13;;;23.30;96.80;;;;;;4999319;28;19960;-57
2022/09/12 11:01:29;;;;;;;21.27;16.25;;;23.20;98.50;;;;;;5013426;28;20151;-53
2022/09/12 11:04:06;;;;;;;21.02;15.55;;;23.10;98.40;;;;;;5035045;28;20495;-51
2022/09/12 11:06:44;;;;;;;18.58;14.63;;;23.00;98.90;;;;;;5032987;28;20037;-51
2022/09/12 11:09:23;;;;;;;17.42;11.88;;;23.00;98.60;;;;;;5034674;28;20036;-50
2022/09/12 11:12:05;;;;;;;17.45;12.85;;;23.00;98.80;;;;;;5035530;28;20072;-54
2022/09/12 11:15:01;;;;;;;16.50;11.73;;;22.90;99.00;;;;;;5017627;28;20522;-48
2022/09/12 11:18:02;;;;;;;16.23;10.88;;;22.90;99.20;;;;;;5035385;28;20036;-45
2022/09/12 11:20:31;;;;;;;17.73;12.52;;;22.90;97.90;;;;;;5035349;28;20084;-48
2022/09/12 11:23:13;;;;;;;15.77;11.50;;;22.90;98.70;;;;;;5036750;28;20037;-58
2022/09/12 11:26:23;;;;;;;16.00;11.80;;;22.90;97.60;;;;;;5035220;28;20155;-53
2022/09/12 11:28:59;;;;;;;17.77;12.02;;;22.80;97.70;;;;;;5034998;28;20447;-57
2022/09/12 11:31:58;;;;;;;20.73;13.45;;;22.70;97.30;;;;;;5033459;28;20136;-57
2022/09/12 11:34:33;;;;;;;17.27;12.55;;;22.70;97.30;;;;;;5000578;28;20079;-55
2022/09/12 11:37:02;;;;;;;17.58;12.57;;;22.70;97.80;;;;;;5032156;28;20466;-56
2022/09/12 11:39:44;;;;;;;16.23;12.45;;;22.70;98.10;;;;;;5024300;28;20045;-55
2022/09/12 11:42:18;;;;;;;14.98;11.55;;;22.70;97.90;;;;;;5035225;28;20414;-54
2022/09/12 11:44:50;;;;;;;13.70;10.35;;;22.70;97.80;;;;;;5034649;28;20730;-55
2022/09/12 11:47:17;;;;;;;15.63;12.07;;;22.70;98.00;;;;;;5037520;28;20075;-52
2022/09/12 11:49:47;;;;;;;17.70;11.95;;;22.60;97.20;;;;;;5038739;28;20048;-52
2022/09/12 11:52:19;;;;;;;20.05;14.77;;;22.60;97.30;;;;;;5038725;28;20124;-55
2022/09/12 11:55:03;;;;;;;;;;;22.60;97.20;;;;;;5034835;28;20821;-50
2022/09/12 11:57:49;;;;;;;12.18;10.18;;;22.60;98.70;;;;;;5034090;28;20551;-54
2022/09/12 12:00:22;;;;;;;13.95;10.38;;;22.50;97.40;;;;;;5038154;28;20029;-55
2022/09/12 12:02:57;;;;;;;13.32;9.75;;;22.50;97.80;;;;;;5038584;28;20043;-50
2022/09/12 12:05:23;;;;;;;15.27;10.93;;;22.50;97.60;;;;;;5037765;28;20051;-45
2022/09/12 12:08:00;;;;;;;13.75;10.48;;;22.50;98.00;;;;;;5038845;28;20049;-49
2022/09/12 12:10:35;;;;;;;12.80;9.27;;;22.60;98.00;;;;;;5019954;28;20072;-49
2022/09/12 12:13:06;;;;;;;13.45;9.35;;;22.70;97.80;;;;;;5021264;28;20090;-48
2022/09/12 12:15:35;;;;;;;16.40;13.07;;;22.70;97.80;;;;;;5038884;28;20064;-46
2022/09/12 12:18:13;;;;;;;14.25;11.07;;;22.70;97.30;;;;;;5021707;28;20845;-45
2022/09/12 12:20:39;;;;;;;17.52;12.32;;;22.70;97.20;;;;;;5019990;28;20051;-44
2022/09/12 12:23:04;;;;;;;14.75;11.57;;;22.70;97.10;;;;;;5039000;28;20390;-44
2022/09/12 12:25:50;;;;;;;13.48;11.48;;;22.80;96.50;;;;;;5038143;28;20541;-46
2022/09/12 12:28:43;;;;;;;11.27;8.85;;;22.90;97.00;;;;;;5038266;28;20045;-45
2022/09/12 12:31:09;;;;;;;11.68;9.30;;;22.90;95.80;;;;;;5027567;28;20084;-46
2022/09/12 12:33:38;;;;;;;13.48;10.55;;;22.90;96.40;;;;;;5020036;28;20060;-49
2022/09/12 12:36:08;;;;;;;13.13;9.15;;;22.90;95.40;;;;;;5031024;28;20095;-48
2022/09/12 12:38:35;;;;;;;12.77;9.23;;;22.90;95.70;;;;;;5041339;28;20863;-50
2022/09/12 12:41:16;;;;;;;11.70;7.53;;;22.80;96.00;;;;;;5038489;28;20037;-48
2022/09/12 12:43:43;;;;;;;10.68;9.05;;;22.80;95.80;;;;;;5035426;28;20084;-48
2022/09/12 12:46:11;;;;;;;10.35;7.50;;;22.70;96.50;;;;;;5038776;28;20045;-45
2022/09/12 12:48:54;;;;;;;14.00;8.70;;;22.70;96.40;;;;;;5039593;28;20044;-52
2022/09/12 12:51:53;;;;;;;13.13;10.40;;;22.70;95.50;;;;;;5020046;28;20098;-54
2022/09/12 12:54:45;;;;;;;11.27;8.52;;;22.70;95.30;;;;;;5040988;28;20044;-52
2022/09/12 12:57:28;;;;;;;12.43;8.98;;;22.70;95.60;;;;;;5038862;28;20056;-52